sensor_id;sensor_type;location;lat;lon;timestamp;temperature;humidity
5023;DHT22;2530;47.990;7.866;2023-07-02T00:01:33;18.80;99.90
5023;DHT22;2530;47.990;7.866;2023-07-02T00:03:58;18.80;99.90
5023;DHT22;2530;47.990;7.866;2023-07-02T00:06:24;18.80;99.90
5023;DHT22;2530;47.990;7.866;2023-07-02T00:08:50;18.80;99.90
5023;DHT22;2530;47.990;7.866;2023-07-02T00:11:16;18.80;99.90
5023;DHT22;2530;47.990;7.866;2023-07-02T00:13:41;18.80;99.90
5023;DHT22;2530;47.990;7.866;2023-07-02T00:16:07;18.80;99.90
5023;DHT22;2530;47.990;7.866;2023-07-02T00:18:32;18.70;99.90
5023;DHT22;2530;47.990;7.866;2023-07-02T00:21:01;18.70;99.90
5023;DHT22;2530;47.990;7.866;2023-07-02T00:23:30;18.70;99.90
5023;DHT22;2530;47.990;7.866;2023-07-02T00:25:59;18.70;99.90
5023;DHT22;2530;47.990;7.866;2023-07-02T00:28:24;18.60;99.90
5023;DHT22;2530;47.990;7.866;2023-07-02T00:30:50;18.70;99.90
5023;DHT22;2530;47.990;7.866;2023-07-02T00:33:15;18.70;99.90
5023;DHT22;2530;47.990;7.866;2023-07-02T00:35:41;18.70;99.90
5023;DHT22;2530;47.990;7.866;2023-07-02T00:38:06;18.70;99.90
5023;DHT22;2530;47.990;7.866;2023-07-02T00:40:32;18.70;99.90
5023;DHT22;2530;47.990;7.866;2023-07-02T00:42:57;18.70;99.90
5023;DHT22;2530;47.990;7.866;2023-07-02T00:45:23;18.70;99.90
5023;DHT22;2530;47.990;7.866;2023-07-02T00:47:54;18.80;99.90
5023;DHT22;2530;47.990;7.866;2023-07-02T00:50:23;18.70;99.90
5023;DHT22;2530;47.990;7.866;2023-07-02T00:52:48;18.70;99.90
5023;DHT22;2530;47.990;7.866;2023-07-02T00:55:14;18.80;99.90
5023;DHT22;2530;47.990;7.866;2023-07-02T00:57:39;18.80;99.90
5023;DHT22;2530;47.990;7.866;2023-07-02T01:00:06;18.80;99.90
5023;DHT22;2530;47.990;7.866;2023-07-02T01:02:32;18.70;99.90
5023;DHT22;2530;47.990;7.866;2023-07-02T01:04:58;18.70;99.90
5023;DHT22;2530;47.990;7.866;2023-07-02T01:07:25;18.70;99.90
5023;DHT22;2530;47.990;7.866;2023-07-02T01:09:51;18.70;99.90
5023;DHT22;2530;47.990;7.866;2023-07-02T01:12:17;18.70;99.90
5023;DHT22;2530;47.990;7.866;2023-07-02T01:14:51;18.70;99.90
5023;DHT22;2530;47.990;7.866;2023-07-02T01:17:18;18.80;99.90
5023;DHT22;2530;47.990;7.866;2023-07-02T01:19:54;18.80;99.90
5023;DHT22;2530;47.990;7.866;2023-07-02T01:22:26;18.70;99.90
5023;DHT22;2530;47.990;7.866;2023-07-02T01:24:52;18.70;99.90
5023;DHT22;2530;47.990;7.866;2023-07-02T01:27:19;18.70;99.90
5023;DHT22;2530;47.990;7.866;2023-07-02T01:29:44;18.70;99.90
5023;DHT22;2530;47.990;7.866;2023-07-02T01:32:15;18.70;99.90
5023;DHT22;2530;47.990;7.866;2023-07-02T01:34:41;18.60;99.90
5023;DHT22;2530;47.990;7.866;2023-07-02T01:37:09;18.60;99.90
5023;DHT22;2530;47.990;7.866;2023-07-02T01:39:34;18.60;99.90
5023;DHT22;2530;47.990;7.866;2023-07-02T01:42:16;18.60;99.90
5023;DHT22;2530;47.990;7.866;2023-07-02T01:44:42;18.60;99.90
5023;DHT22;2530;47.990;7.866;2023-07-02T01:47:08;18.60;99.90
5023;DHT22;2530;47.990;7.866;2023-07-02T01:49:34;18.60;99.90
5023;DHT22;2530;47.990;7.866;2023-07-02T01:52:00;18.60;99.90
5023;DHT22;2530;47.990;7.866;2023-07-02T01:54:27;18.60;99.90
5023;DHT22;2530;47.990;7.866;2023-07-02T01:56:53;18.60;99.90
5023;DHT22;2530;47.990;7.866;2023-07-02T01:59:19;18.60;99.90
5023;DHT22;2530;47.990;7.866;2023-07-02T02:01:44;18.60;99.90
5023;DHT22;2530;47.990;7.866;2023-07-02T02:04:10;18.60;99.90
5023;DHT22;2530;47.990;7.866;2023-07-02T02:06:37;18.60;99.90
5023;DHT22;2530;47.990;7.866;2023-07-02T02:09:03;18.60;99.90
5023;DHT22;2530;47.990;7.866;2023-07-02T02:11:30;18.60;99.90
5023;DHT22;2530;47.990;7.866;2023-07-02T02:13:55;18.60;99.90
5023;DHT22;2530;47.990;7.866;2023-07-02T02:16:21;18.60;99.90
5023;DHT22;2530;47.990;7.866;2023-07-02T02:18:47;18.50;99.90
5023;DHT22;2530;47.990;7.866;2023-07-02T02:21:12;18.60;99.90
5023;DHT22;2530;47.990;7.866;2023-07-02T02:23:39;18.60;99.90
5023;DHT22;2530;47.990;7.866;2023-07-02T02:26:04;18.50;99.90
5023;DHT22;2530;47.990;7.866;2023-07-02T02:28:30;18.50;99.90
5023;DHT22;2530;47.990;7.866;2023-07-02T02:30:55;18.50;99.90
5023;DHT22;2530;47.990;7.866;2023-07-02T02:33:21;18.50;99.90
5023;DHT22;2530;47.990;7.866;2023-07-02T02:35:47;18.50;99.90
5023;DHT22;2530;47.990;7.866;2023-07-02T02:38:13;18.40;99.90
5023;DHT22;2530;47.990;7.866;2023-07-02T02:40:40;18.40;99.90
5023;DHT22;2530;47.990;7.866;2023-07-02T02:43:05;18.40;99.90
5023;DHT22;2530;47.990;7.866;2023-07-02T02:45:31;18.40;99.90
5023;DHT22;2530;47.990;7.866;2023-07-02T02:47:56;18.40;99.90
5023;DHT22;2530;47.990;7.866;2023-07-02T02:50:22;18.40;99.90
5023;DHT22;2530;47.990;7.866;2023-07-02T02:52:47;18.30;99.90
5023;DHT22;2530;47.990;7.866;2023-07-02T02:55:13;18.30;99.90
5023;DHT22;2530;47.990;7.866;2023-07-02T02:57:39;18.30;99.90
5023;DHT22;2530;47.990;7.866;2023-07-02T03:00:05;18.30;99.90
5023;DHT22;2530;47.990;7.866;2023-07-02T03:02:32;18.30;99.90
5023;DHT22;2530;47.990;7.866;2023-07-02T03:04:57;18.30;99.90
5023;DHT22;2530;47.990;7.866;2023-07-02T03:07:31;18.40;99.90
5023;DHT22;2530;47.990;7.866;2023-07-02T03:09:56;18.40;99.90
5023;DHT22;2530;47.990;7.866;2023-07-02T03:12:22;18.30;99.90
5023;DHT22;2530;47.990;7.866;2023-07-02T03:14:48;18.30;99.90
5023;DHT22;2530;47.990;7.866;2023-07-02T03:17:18;18.30;99.90
5023;DHT22;2530;47.990;7.866;2023-07-02T03:19:44;18.30;99.90
5023;DHT22;2530;47.990;7.866;2023-07-02T03:22:09;18.30;99.90
5023;DHT22;2530;47.990;7.866;2023-07-02T03:24:35;18.30;99.90
5023;DHT22;2530;47.990;7.866;2023-07-02T03:27:00;18.30;99.90
5023;DHT22;2530;47.990;7.866;2023-07-02T03:29:26;18.30;99.90
5023;DHT22;2530;47.990;7.866;2023-07-02T03:31:51;18.30;99.90
5023;DHT22;2530;47.990;7.866;2023-07-02T03:34:17;18.30;99.90
5023;DHT22;2530;47.990;7.866;2023-07-02T03:36:42;18.30;99.90
5023;DHT22;2530;47.990;7.866;2023-07-02T03:39:09;18.20;99.90
5023;DHT22;2530;47.990;7.866;2023-07-02T03:41:35;18.30;99.90
5023;DHT22;2530;47.990;7.866;2023-07-02T03:44:01;18.20;99.90
5023;DHT22;2530;47.990;7.866;2023-07-02T03:46:26;18.30;99.90
5023;DHT22;2530;47.990;7.866;2023-07-02T03:48:52;18.30;99.90
5023;DHT22;2530;47.990;7.866;2023-07-02T03:51:17;18.20;99.90
5023;DHT22;2530;47.990;7.866;2023-07-02T03:53:43;18.30;99.90
5023;DHT22;2530;47.990;7.866;2023-07-02T03:56:09;18.30;99.90
5023;DHT22;2530;47.990;7.866;2023-07-02T03:58:34;18.30;99.90
5023;DHT22;2530;47.990;7.866;2023-07-02T04:01:00;18.40;99.90
5023;DHT22;2530;47.990;7.866;2023-07-02T04:03:26;18.30;99.90
5023;DHT22;2530;47.990;7.866;2023-07-02T04:05:52;18.30;99.90
5023;DHT22;2530;47.990;7.866;2023-07-02T04:08:18;18.40;99.90
5023;DHT22;2530;47.990;7.866;2023-07-02T04:10:46;18.30;99.90
5023;DHT22;2530;47.990;7.866;2023-07-02T04:13:11;18.30;99.90
5023;DHT22;2530;47.990;7.866;2023-07-02T04:15:37;18.30;99.90
5023;DHT22;2530;47.990;7.866;2023-07-02T04:18:02;18.30;99.90
5023;DHT22;2530;47.990;7.866;2023-07-02T04:20:28;18.30;99.90
5023;DHT22;2530;47.990;7.866;2023-07-02T04:22:54;18.20;99.90
5023;DHT22;2530;47.990;7.866;2023-07-02T04:25:20;18.20;99.90
5023;DHT22;2530;47.990;7.866;2023-07-02T04:27:45;18.20;99.90
5023;DHT22;2530;47.990;7.866;2023-07-02T04:30:11;18.20;99.90
5023;DHT22;2530;47.990;7.866;2023-07-02T04:32:37;18.20;99.90
5023;DHT22;2530;47.990;7.866;2023-07-02T04:35:07;18.10;99.90
5023;DHT22;2530;47.990;7.866;2023-07-02T04:37:33;18.20;99.90
5023;DHT22;2530;47.990;7.866;2023-07-02T04:39:58;18.10;99.90
5023;DHT22;2530;47.990;7.866;2023-07-02T04:42:25;18.20;99.90
5023;DHT22;2530;47.990;7.866;2023-07-02T04:44:53;18.20;99.90
5023;DHT22;2530;47.990;7.866;2023-07-02T04:47:19;18.20;99.90
5023;DHT22;2530;47.990;7.866;2023-07-02T04:49:45;18.80;99.90
5023;DHT22;2530;47.990;7.866;2023-07-02T04:52:11;18.10;99.90
5023;DHT22;2530;47.990;7.866;2023-07-02T04:54:36;18.10;99.90
5023;DHT22;2530;47.990;7.866;2023-07-02T04:57:02;18.10;99.90
5023;DHT22;2530;47.990;7.866;2023-07-02T04:59:28;18.10;99.90
5023;DHT22;2530;47.990;7.866;2023-07-02T05:01:53;18.10;99.90
5023;DHT22;2530;47.990;7.866;2023-07-02T05:04:18;18.10;99.90
5023;DHT22;2530;47.990;7.866;2023-07-02T05:06:44;18.10;99.90
5023;DHT22;2530;47.990;7.866;2023-07-02T05:09:10;18.10;99.90
5023;DHT22;2530;47.990;7.866;2023-07-02T05:11:35;18.00;99.90
5023;DHT22;2530;47.990;7.866;2023-07-02T05:14:01;18.10;99.90
5023;DHT22;2530;47.990;7.866;2023-07-02T05:16:27;18.10;99.90
5023;DHT22;2530;47.990;7.866;2023-07-02T05:18:53;18.10;99.90
5023;DHT22;2530;47.990;7.866;2023-07-02T05:21:18;18.20;99.90
5023;DHT22;2530;47.990;7.866;2023-07-02T05:23:44;18.20;99.90
5023;DHT22;2530;47.990;7.866;2023-07-02T05:26:10;18.20;99.90
5023;DHT22;2530;47.990;7.866;2023-07-02T05:28:36;18.20;99.90
5023;DHT22;2530;47.990;7.866;2023-07-02T05:31:01;18.10;99.90
5023;DHT22;2530;47.990;7.866;2023-07-02T05:33:27;18.20;99.90
5023;DHT22;2530;47.990;7.866;2023-07-02T05:35:52;18.20;99.90
5023;DHT22;2530;47.990;7.866;2023-07-02T05:38:18;18.20;99.90
5023;DHT22;2530;47.990;7.866;2023-07-02T05:40:45;18.20;99.90
5023;DHT22;2530;47.990;7.866;2023-07-02T05:43:11;18.30;99.90
5023;DHT22;2530;47.990;7.866;2023-07-02T05:45:36;18.20;99.90
5023;DHT22;2530;47.990;7.866;2023-07-02T05:48:02;18.30;99.90
5023;DHT22;2530;47.990;7.866;2023-07-02T05:50:28;18.30;99.90
5023;DHT22;2530;47.990;7.866;2023-07-02T05:52:53;18.30;99.90
5023;DHT22;2530;47.990;7.866;2023-07-02T05:55:19;18.50;99.90
5023;DHT22;2530;47.990;7.866;2023-07-02T05:57:45;18.30;99.90
5023;DHT22;2530;47.990;7.866;2023-07-02T06:00:11;18.20;99.90
5023;DHT22;2530;47.990;7.866;2023-07-02T06:02:37;18.30;99.90
5023;DHT22;2530;47.990;7.866;2023-07-02T06:05:02;18.30;99.90
5023;DHT22;2530;47.990;7.866;2023-07-02T06:07:28;18.30;99.90
5023;DHT22;2530;47.990;7.866;2023-07-02T06:09:53;18.40;99.90
5023;DHT22;2530;47.990;7.866;2023-07-02T06:12:21;18.30;99.90
5023;DHT22;2530;47.990;7.866;2023-07-02T06:14:46;18.40;99.90
5023;DHT22;2530;47.990;7.866;2023-07-02T06:17:12;18.40;99.90
5023;DHT22;2530;47.990;7.866;2023-07-02T06:19:38;18.30;99.90
5023;DHT22;2530;47.990;7.866;2023-07-02T06:22:03;18.30;99.90
5023;DHT22;2530;47.990;7.866;2023-07-02T06:24:29;18.30;99.90
5023;DHT22;2530;47.990;7.866;2023-07-02T06:26:54;18.40;99.90
5023;DHT22;2530;47.990;7.866;2023-07-02T06:29:22;18.40;99.90
5023;DHT22;2530;47.990;7.866;2023-07-02T06:31:48;18.50;99.90
5023;DHT22;2530;47.990;7.866;2023-07-02T06:34:13;18.50;99.90
5023;DHT22;2530;47.990;7.866;2023-07-02T06:36:40;18.50;99.90
5023;DHT22;2530;47.990;7.866;2023-07-02T06:39:05;18.50;99.90
5023;DHT22;2530;47.990;7.866;2023-07-02T06:41:31;18.70;99.90
5023;DHT22;2530;47.990;7.866;2023-07-02T06:43:56;18.70;99.90
5023;DHT22;2530;47.990;7.866;2023-07-02T06:46:22;18.70;99.90
5023;DHT22;2530;47.990;7.866;2023-07-02T06:48:47;18.70;99.90
5023;DHT22;2530;47.990;7.866;2023-07-02T06:51:13;18.70;99.90
5023;DHT22;2530;47.990;7.866;2023-07-02T06:53:41;18.60;99.90
5023;DHT22;2530;47.990;7.866;2023-07-02T06:56:08;18.60;99.90
5023;DHT22;2530;47.990;7.866;2023-07-02T06:58:34;18.70;99.90
5023;DHT22;2530;47.990;7.866;2023-07-02T07:01:00;18.70;99.90
5023;DHT22;2530;47.990;7.866;2023-07-02T07:03:26;17.50;99.90
5023;DHT22;2530;47.990;7.866;2023-07-02T07:05:52;18.60;99.90
5023;DHT22;2530;47.990;7.866;2023-07-02T07:08:17;18.60;99.90
5023;DHT22;2530;47.990;7.866;2023-07-02T07:10:43;18.70;99.90
5023;DHT22;2530;47.990;7.866;2023-07-02T07:13:13;18.70;99.90
5023;DHT22;2530;47.990;7.866;2023-07-02T07:15:38;18.90;99.90
5023;DHT22;2530;47.990;7.866;2023-07-02T07:18:04;18.90;99.90
5023;DHT22;2530;47.990;7.866;2023-07-02T07:20:30;18.90;99.90
5023;DHT22;2530;47.990;7.866;2023-07-02T07:22:56;19.00;99.90
5023;DHT22;2530;47.990;7.866;2023-07-02T07:25:22;19.10;99.90
5023;DHT22;2530;47.990;7.866;2023-07-02T07:27:48;19.00;99.90
5023;DHT22;2530;47.990;7.866;2023-07-02T07:30:13;19.20;99.90
5023;DHT22;2530;47.990;7.866;2023-07-02T07:32:40;19.30;99.90
5023;DHT22;2530;47.990;7.866;2023-07-02T07:35:06;19.30;99.90
5023;DHT22;2530;47.990;7.866;2023-07-02T07:37:32;19.30;99.90
5023;DHT22;2530;47.990;7.866;2023-07-02T07:39:58;19.30;99.90
5023;DHT22;2530;47.990;7.866;2023-07-02T07:42:23;19.20;99.90
5023;DHT22;2530;47.990;7.866;2023-07-02T07:44:49;19.30;99.90
5023;DHT22;2530;47.990;7.866;2023-07-02T07:47:14;19.20;99.90
5023;DHT22;2530;47.990;7.866;2023-07-02T07:49:40;18.90;99.90
5023;DHT22;2530;47.990;7.866;2023-07-02T07:52:06;19.30;99.90
5023;DHT22;2530;47.990;7.866;2023-07-02T07:54:33;19.50;99.90
5023;DHT22;2530;47.990;7.866;2023-07-02T07:57:00;19.50;99.90
5023;DHT22;2530;47.990;7.866;2023-07-02T07:59:26;19.50;99.90
5023;DHT22;2530;47.990;7.866;2023-07-02T08:01:51;19.60;99.90
5023;DHT22;2530;47.990;7.866;2023-07-02T08:04:17;19.40;99.90
5023;DHT22;2530;47.990;7.866;2023-07-02T08:06:42;19.50;99.90
5023;DHT22;2530;47.990;7.866;2023-07-02T08:09:08;19.50;99.90
5023;DHT22;2530;47.990;7.866;2023-07-02T08:11:34;19.40;99.90
5023;DHT22;2530;47.990;7.866;2023-07-02T08:14:00;19.60;99.90
5023;DHT22;2530;47.990;7.866;2023-07-02T08:16:25;19.60;99.90
5023;DHT22;2530;47.990;7.866;2023-07-02T08:18:51;19.60;99.90
5023;DHT22;2530;47.990;7.866;2023-07-02T08:21:16;19.60;99.90
5023;DHT22;2530;47.990;7.866;2023-07-02T08:23:42;19.70;99.90
5023;DHT22;2530;47.990;7.866;2023-07-02T08:26:09;19.70;99.90
5023;DHT22;2530;47.990;7.866;2023-07-02T08:28:36;19.70;99.90
5023;DHT22;2530;47.990;7.866;2023-07-02T08:31:01;19.60;99.90
5023;DHT22;2530;47.990;7.866;2023-07-02T08:33:27;19.70;99.90
5023;DHT22;2530;47.990;7.866;2023-07-02T08:35:52;19.70;99.90
5023;DHT22;2530;47.990;7.866;2023-07-02T08:38:18;21.00;99.90
5023;DHT22;2530;47.990;7.866;2023-07-02T08:40:43;20.00;99.90
5023;DHT22;2530;47.990;7.866;2023-07-02T08:43:09;20.30;99.90
5023;DHT22;2530;47.990;7.866;2023-07-02T08:45:35;20.20;99.90
5023;DHT22;2530;47.990;7.866;2023-07-02T08:48:01;20.10;99.90
5023;DHT22;2530;47.990;7.866;2023-07-02T08:50:27;20.00;99.90
5023;DHT22;2530;47.990;7.866;2023-07-02T08:52:54;20.30;99.90
5023;DHT22;2530;47.990;7.866;2023-07-02T08:55:19;20.10;99.90
5023;DHT22;2530;47.990;7.866;2023-07-02T08:57:54;20.00;99.90
5023;DHT22;2530;47.990;7.866;2023-07-02T09:00:20;20.10;99.90
5023;DHT22;2530;47.990;7.866;2023-07-02T09:02:46;20.00;99.90
5023;DHT22;2530;47.990;7.866;2023-07-02T09:05:12;19.90;99.90
5023;DHT22;2530;47.990;7.866;2023-07-02T09:07:46;19.90;99.90
5023;DHT22;2530;47.990;7.866;2023-07-02T09:10:12;20.00;99.90
5023;DHT22;2530;47.990;7.866;2023-07-02T09:12:38;20.00;99.90
5023;DHT22;2530;47.990;7.866;2023-07-02T09:15:05;20.00;99.90
5023;DHT22;2530;47.990;7.866;2023-07-02T09:17:38;19.90;99.90
5023;DHT22;2530;47.990;7.866;2023-07-02T09:20:05;20.20;99.90
5023;DHT22;2530;47.990;7.866;2023-07-02T09:22:33;20.10;99.90
5023;DHT22;2530;47.990;7.866;2023-07-02T09:25:00;20.10;99.90
5023;DHT22;2530;47.990;7.866;2023-07-02T09:27:40;20.20;99.90
5023;DHT22;2530;47.990;7.866;2023-07-02T09:30:10;19.90;99.90
5023;DHT22;2530;47.990;7.866;2023-07-02T09:32:38;20.40;99.90
5023;DHT22;2530;47.990;7.866;2023-07-02T09:35:04;20.50;99.90
5023;DHT22;2530;47.990;7.866;2023-07-02T09:37:31;20.70;99.90
5023;DHT22;2530;47.990;7.866;2023-07-02T09:39:57;20.50;99.90
5023;DHT22;2530;47.990;7.866;2023-07-02T09:42:24;20.80;99.90
5023;DHT22;2530;47.990;7.866;2023-07-02T09:44:52;20.80;99.90
5023;DHT22;2530;47.990;7.866;2023-07-02T09:47:18;21.00;99.90
5023;DHT22;2530;47.990;7.866;2023-07-02T09:49:53;20.90;99.90
5023;DHT22;2530;47.990;7.866;2023-07-02T09:52:20;20.70;99.90
5023;DHT22;2530;47.990;7.866;2023-07-02T09:54:46;20.90;99.90
5023;DHT22;2530;47.990;7.866;2023-07-02T09:57:12;21.00;99.90
5023;DHT22;2530;47.990;7.866;2023-07-02T09:59:38;21.00;99.90
5023;DHT22;2530;47.990;7.866;2023-07-02T10:02:04;21.00;99.90
5023;DHT22;2530;47.990;7.866;2023-07-02T10:04:43;20.90;99.90
5023;DHT22;2530;47.990;7.866;2023-07-02T10:07:09;20.80;99.90
5023;DHT22;2530;47.990;7.866;2023-07-02T10:09:42;21.10;99.90
5023;DHT22;2530;47.990;7.866;2023-07-02T10:12:18;21.00;99.90
5023;DHT22;2530;47.990;7.866;2023-07-02T10:14:45;20.80;99.90
5023;DHT22;2530;47.990;7.866;2023-07-02T10:17:32;21.10;99.90
5023;DHT22;2530;47.990;7.866;2023-07-02T10:20:00;21.10;99.90
5023;DHT22;2530;47.990;7.866;2023-07-02T10:22:26;21.30;99.90
5023;DHT22;2530;47.990;7.866;2023-07-02T10:24:58;21.60;99.90
5023;DHT22;2530;47.990;7.866;2023-07-02T10:27:37;21.60;99.90
5023;DHT22;2530;47.990;7.866;2023-07-02T10:30:04;21.50;99.90
5023;DHT22;2530;47.990;7.866;2023-07-02T10:32:30;21.60;99.90
5023;DHT22;2530;47.990;7.866;2023-07-02T10:34:56;21.60;99.90
5023;DHT22;2530;47.990;7.866;2023-07-02T10:37:24;21.70;99.90
5023;DHT22;2530;47.990;7.866;2023-07-02T10:39:49;21.60;99.90
5023;DHT22;2530;47.990;7.866;2023-07-02T10:42:17;21.70;99.90
5023;DHT22;2530;47.990;7.866;2023-07-02T10:44:52;21.70;99.90
5023;DHT22;2530;47.990;7.866;2023-07-02T10:47:19;21.90;99.90
5023;DHT22;2530;47.990;7.866;2023-07-02T10:49:44;22.00;99.90
5023;DHT22;2530;47.990;7.866;2023-07-02T10:52:10;21.80;99.90
5023;DHT22;2530;47.990;7.866;2023-07-02T10:54:43;21.60;99.90
5023;DHT22;2530;47.990;7.866;2023-07-02T10:57:10;21.40;99.90
5023;DHT22;2530;47.990;7.866;2023-07-02T10:59:38;21.50;99.90
5023;DHT22;2530;47.990;7.866;2023-07-02T11:02:04;21.50;99.90
5023;DHT22;2530;47.990;7.866;2023-07-02T11:04:33;21.50;99.90
5023;DHT22;2530;47.990;7.866;2023-07-02T11:07:00;21.30;99.90
5023;DHT22;2530;47.990;7.866;2023-07-02T11:09:25;21.10;99.90
5023;DHT22;2530;47.990;7.866;2023-07-02T11:11:56;21.20;99.90
5023;DHT22;2530;47.990;7.866;2023-07-02T11:14:32;21.10;99.90
5023;DHT22;2530;47.990;7.866;2023-07-02T11:17:00;21.10;99.90
5023;DHT22;2530;47.990;7.866;2023-07-02T11:19:27;21.20;99.90
5023;DHT22;2530;47.990;7.866;2023-07-02T11:21:55;21.10;99.90
5023;DHT22;2530;47.990;7.866;2023-07-02T11:24:28;21.30;99.90
5023;DHT22;2530;47.990;7.866;2023-07-02T11:26:54;21.20;99.90
5023;DHT22;2530;47.990;7.866;2023-07-02T11:29:20;21.20;99.90
5023;DHT22;2530;47.990;7.866;2023-07-02T11:31:46;21.10;99.90
5023;DHT22;2530;47.990;7.866;2023-07-02T11:34:22;20.60;99.90
5023;DHT22;2530;47.990;7.866;2023-07-02T11:36:48;21.40;99.90
5023;DHT22;2530;47.990;7.866;2023-07-02T11:39:13;21.30;99.90
5023;DHT22;2530;47.990;7.866;2023-07-02T11:41:42;21.30;99.90
5023;DHT22;2530;47.990;7.866;2023-07-02T11:44:08;21.20;99.90
5023;DHT22;2530;47.990;7.866;2023-07-02T11:46:34;21.30;99.90
5023;DHT22;2530;47.990;7.866;2023-07-02T11:49:00;21.30;99.90
5023;DHT22;2530;47.990;7.866;2023-07-02T11:51:26;21.30;99.90
5023;DHT22;2530;47.990;7.866;2023-07-02T11:53:52;21.30;99.90
5023;DHT22;2530;47.990;7.866;2023-07-02T11:56:17;22.00;99.90
5023;DHT22;2530;47.990;7.866;2023-07-02T11:58:43;21.90;99.90
5023;DHT22;2530;47.990;7.866;2023-07-02T12:01:08;22.20;99.90
5023;DHT22;2530;47.990;7.866;2023-07-02T12:03:34;22.50;99.90
5023;DHT22;2530;47.990;7.866;2023-07-02T12:05:59;22.20;99.90
5023;DHT22;2530;47.990;7.866;2023-07-02T12:08:25;22.20;99.90
5023;DHT22;2530;47.990;7.866;2023-07-02T12:10:51;22.40;99.90
5023;DHT22;2530;47.990;7.866;2023-07-02T12:13:16;22.90;99.90
5023;DHT22;2530;47.990;7.866;2023-07-02T12:15:42;23.00;99.90
5023;DHT22;2530;47.990;7.866;2023-07-02T12:18:09;23.70;99.90
5023;DHT22;2530;47.990;7.866;2023-07-02T12:20:34;23.00;99.90
5023;DHT22;2530;47.990;7.866;2023-07-02T12:23:00;23.60;99.90
5023;DHT22;2530;47.990;7.866;2023-07-02T12:25:25;23.70;99.90
5023;DHT22;2530;47.990;7.866;2023-07-02T12:27:51;23.60;99.90
5023;DHT22;2530;47.990;7.866;2023-07-02T12:30:17;23.20;99.90
5023;DHT22;2530;47.990;7.866;2023-07-02T12:32:43;22.90;99.90
5023;DHT22;2530;47.990;7.866;2023-07-02T12:35:10;23.10;99.90
5023;DHT22;2530;47.990;7.866;2023-07-02T12:37:41;22.80;99.90
5023;DHT22;2530;47.990;7.866;2023-07-02T12:40:07;22.90;99.90
5023;DHT22;2530;47.990;7.866;2023-07-02T12:42:33;23.00;99.90
5023;DHT22;2530;47.990;7.866;2023-07-02T12:44:59;22.90;99.90
5023;DHT22;2530;47.990;7.866;2023-07-02T12:47:24;23.00;99.90
5023;DHT22;2530;47.990;7.866;2023-07-02T12:49:50;22.60;99.90
5023;DHT22;2530;47.990;7.866;2023-07-02T12:52:15;22.30;99.90
5023;DHT22;2530;47.990;7.866;2023-07-02T12:54:41;22.90;99.90
5023;DHT22;2530;47.990;7.866;2023-07-02T12:57:06;23.10;99.90
5023;DHT22;2530;47.990;7.866;2023-07-02T12:59:32;22.90;99.90
5023;DHT22;2530;47.990;7.866;2023-07-02T13:01:57;23.20;99.90
5023;DHT22;2530;47.990;7.866;2023-07-02T13:04:23;23.50;99.90
5023;DHT22;2530;47.990;7.866;2023-07-02T13:06:48;23.40;99.90
5023;DHT22;2530;47.990;7.866;2023-07-02T13:09:14;23.20;99.90
5023;DHT22;2530;47.990;7.866;2023-07-02T13:11:39;23.30;99.90
5023;DHT22;2530;47.990;7.866;2023-07-02T13:14:05;24.20;99.90
5023;DHT22;2530;47.990;7.866;2023-07-02T13:16:30;24.20;99.90
5023;DHT22;2530;47.990;7.866;2023-07-02T13:18:56;24.80;99.90
5023;DHT22;2530;47.990;7.866;2023-07-02T13:21:22;24.60;99.90
5023;DHT22;2530;47.990;7.866;2023-07-02T13:23:48;23.80;99.90
5023;DHT22;2530;47.990;7.866;2023-07-02T13:26:13;24.30;99.90
5023;DHT22;2530;47.990;7.866;2023-07-02T13:28:39;23.70;99.90
5023;DHT22;2530;47.990;7.866;2023-07-02T13:31:04;24.70;99.90
5023;DHT22;2530;47.990;7.866;2023-07-02T13:33:30;24.50;99.90
5023;DHT22;2530;47.990;7.866;2023-07-02T13:35:56;25.40;99.90
5023;DHT22;2530;47.990;7.866;2023-07-02T13:38:22;25.40;99.90
5023;DHT22;2530;47.990;7.866;2023-07-02T13:40:47;26.00;99.90
5023;DHT22;2530;47.990;7.866;2023-07-02T13:43:13;25.20;99.90
5023;DHT22;2530;47.990;7.866;2023-07-02T13:45:39;25.50;99.90
5023;DHT22;2530;47.990;7.866;2023-07-02T13:48:05;24.70;99.90
5023;DHT22;2530;47.990;7.866;2023-07-02T13:50:30;25.10;99.90
5023;DHT22;2530;47.990;7.866;2023-07-02T13:52:56;25.70;99.90
5023;DHT22;2530;47.990;7.866;2023-07-02T13:55:22;24.60;99.90
5023;DHT22;2530;47.990;7.866;2023-07-02T13:57:55;24.80;99.90
5023;DHT22;2530;47.990;7.866;2023-07-02T14:00:22;24.80;99.90
5023;DHT22;2530;47.990;7.866;2023-07-02T14:02:48;24.90;99.90
5023;DHT22;2530;47.990;7.866;2023-07-02T14:05:13;25.00;99.90
5023;DHT22;2530;47.990;7.866;2023-07-02T14:07:39;25.40;99.90
5023;DHT22;2530;47.990;7.866;2023-07-02T14:10:05;25.20;99.90
5023;DHT22;2530;47.990;7.866;2023-07-02T14:12:31;25.50;99.90
5023;DHT22;2530;47.990;7.866;2023-07-02T14:14:57;25.30;99.90
5023;DHT22;2530;47.990;7.866;2023-07-02T14:17:22;25.30;99.90
5023;DHT22;2530;47.990;7.866;2023-07-02T14:19:48;25.20;99.90
5023;DHT22;2530;47.990;7.866;2023-07-02T14:22:14;25.40;99.90
5023;DHT22;2530;47.990;7.866;2023-07-02T14:24:39;25.40;99.90
5023;DHT22;2530;47.990;7.866;2023-07-02T14:27:06;25.40;99.90
5023;DHT22;2530;47.990;7.866;2023-07-02T14:29:31;25.80;99.90
5023;DHT22;2530;47.990;7.866;2023-07-02T14:31:57;25.50;99.90
5023;DHT22;2530;47.990;7.866;2023-07-02T14:34:22;25.70;99.90
5023;DHT22;2530;47.990;7.866;2023-07-02T14:36:48;25.60;99.90
5023;DHT22;2530;47.990;7.866;2023-07-02T14:39:13;26.20;99.90
5023;DHT22;2530;47.990;7.866;2023-07-02T14:41:39;25.50;99.90
5023;DHT22;2530;47.990;7.866;2023-07-02T14:44:05;25.60;99.90
5023;DHT22;2530;47.990;7.866;2023-07-02T14:46:31;25.40;99.90
5023;DHT22;2530;47.990;7.866;2023-07-02T14:48:56;25.30;99.90
5023;DHT22;2530;47.990;7.866;2023-07-02T14:51:22;25.10;99.90
5023;DHT22;2530;47.990;7.866;2023-07-02T14:53:50;25.40;99.90
5023;DHT22;2530;47.990;7.866;2023-07-02T14:56:16;25.80;99.90
5023;DHT22;2530;47.990;7.866;2023-07-02T14:58:41;25.20;99.90
5023;DHT22;2530;47.990;7.866;2023-07-02T15:01:07;25.50;99.90
5023;DHT22;2530;47.990;7.866;2023-07-02T15:03:33;25.40;99.90
5023;DHT22;2530;47.990;7.866;2023-07-02T15:06:12;25.70;99.90
5023;DHT22;2530;47.990;7.866;2023-07-02T15:08:38;25.50;99.90
5023;DHT22;2530;47.990;7.866;2023-07-02T15:11:04;25.60;99.90
5023;DHT22;2530;47.990;7.866;2023-07-02T15:13:30;25.60;99.90
5023;DHT22;2530;47.990;7.866;2023-07-02T15:15:56;25.40;99.90
5023;DHT22;2530;47.990;7.866;2023-07-02T15:18:21;25.40;99.90
5023;DHT22;2530;47.990;7.866;2023-07-02T15:20:50;25.80;99.90
5023;DHT22;2530;47.990;7.866;2023-07-02T15:23:19;26.00;99.90
5023;DHT22;2530;47.990;7.866;2023-07-02T15:25:53;26.20;99.90
5023;DHT22;2530;47.990;7.866;2023-07-02T15:28:20;26.20;99.90
5023;DHT22;2530;47.990;7.866;2023-07-02T15:30:46;26.00;99.90
5023;DHT22;2530;47.990;7.866;2023-07-02T15:33:13;26.20;99.90
5023;DHT22;2530;47.990;7.866;2023-07-02T15:35:39;25.90;99.90
5023;DHT22;2530;47.990;7.866;2023-07-02T15:38:04;26.00;99.90
5023;DHT22;2530;47.990;7.866;2023-07-02T15:40:30;26.40;99.90
5023;DHT22;2530;47.990;7.866;2023-07-02T15:42:56;26.30;99.90
5023;DHT22;2530;47.990;7.866;2023-07-02T15:45:21;26.60;99.90
5023;DHT22;2530;47.990;7.866;2023-07-02T15:47:47;26.70;99.90
5023;DHT22;2530;47.990;7.866;2023-07-02T15:50:12;26.40;99.90
5023;DHT22;2530;47.990;7.866;2023-07-02T15:52:38;26.70;99.90
5023;DHT22;2530;47.990;7.866;2023-07-02T15:55:04;25.90;99.90
5023;DHT22;2530;47.990;7.866;2023-07-02T15:57:29;25.80;99.90